createdAt,value
2023-02-21T00:00:56.627Z,25.40
2023-02-21T00:01:56.652Z,26.50
2023-02-21T00:02:56.615Z,25.50
2023-02-21T00:03:56.614Z,26.00
2023-02-21T00:04:56.638Z,26.60
2023-02-21T00:05:56.595Z,25.80
2023-02-21T00:06:56.589Z,25.40
2023-02-21T00:07:56.581Z,24.90
2023-02-21T00:08:56.588Z,25.90
2023-02-21T00:09:56.595Z,25.30
2023-02-21T00:10:56.554Z,25.10
2023-02-21T00:11:56.545Z,25.00
2023-02-21T00:12:56.549Z,24.50
2023-02-21T00:13:56.534Z,24.00
2023-02-21T00:14:56.552Z,25.20
2023-02-21T00:15:56.515Z,24.50
2023-02-21T00:16:56.517Z,25.60
2023-02-21T00:17:56.504Z,25.20
2023-02-21T00:18:56.501Z,24.20
2023-02-21T00:19:56.514Z,25.10
2023-02-21T00:20:56.485Z,27.00
2023-02-21T00:21:56.467Z,25.90
2023-02-21T00:22:56.465Z,26.10
2023-02-21T00:23:56.460Z,26.00
2023-02-21T00:24:56.479Z,24.30
2023-02-21T00:25:56.453Z,24.70
2023-02-21T00:26:56.432Z,24.30
2023-02-21T00:27:56.426Z,23.90
2023-02-21T00:28:56.419Z,24.60
2023-02-21T00:29:56.437Z,24.40
2023-02-21T00:30:56.479Z,24.70
2023-02-21T00:31:56.396Z,24.40
2023-02-21T00:32:56.536Z,24.20
2023-02-21T00:33:56.383Z,25.00
2023-02-21T00:34:56.395Z,24.10
2023-02-21T00:35:56.359Z,25.70
2023-02-21T00:36:56.363Z,25.30
2023-02-21T00:37:56.346Z,25.00
2023-02-21T00:38:56.361Z,25.20
2023-02-21T00:39:56.355Z,25.40
2023-02-21T00:40:56.361Z,25.80
2023-02-21T00:41:56.326Z,26.30
2023-02-21T00:42:56.308Z,29.40
2023-02-21T00:43:56.305Z,25.60
2023-02-21T00:44:56.296Z,25.50
2023-02-21T00:45:56.334Z,24.70
2023-02-21T00:46:56.285Z,25.50
2023-02-21T00:47:56.275Z,25.20
2023-02-21T00:48:56.269Z,25.30
2023-02-21T00:49:56.251Z,26.90
2023-02-21T00:50:57.272Z,27.50
2023-02-21T00:51:56.251Z,27.20
2023-02-21T00:52:56.235Z,27.00
2023-02-21T00:53:56.224Z,25.50
2023-02-21T00:54:56.220Z,29.60
2023-02-21T00:55:56.249Z,29.40
2023-02-21T00:56:56.201Z,33.30
2023-02-21T00:57:56.198Z,35.70
2023-02-21T00:58:56.198Z,27.40
2023-02-21T00:59:56.188Z,27.00
2023-02-21T01:00:56.237Z,26.30
2023-02-21T01:01:56.162Z,27.30
2023-02-21T01:02:56.157Z,26.70
2023-02-21T01:03:56.218Z,27.10
2023-02-21T01:04:56.144Z,25.40
2023-02-21T01:05:56.161Z,25.50
2023-02-21T01:06:56.129Z,24.70
2023-02-21T01:07:56.116Z,25.20
2023-02-21T01:08:56.118Z,25.60
2023-02-21T01:09:56.108Z,25.20
2023-02-21T01:10:56.136Z,24.60
2023-02-21T01:11:56.097Z,24.30
2023-02-21T01:12:56.089Z,24.20
2023-02-21T01:13:56.078Z,25.40
2023-02-21T01:14:56.077Z,25.00
2023-02-21T01:15:56.157Z,25.20
2023-02-21T01:16:59.402Z,25.20
2023-02-21T01:17:57.051Z,25.70
2023-02-21T01:18:56.047Z,27.50
2023-02-21T01:19:56.042Z,26.30
2023-02-21T01:20:56.060Z,25.90
2023-02-21T01:21:56.050Z,25.60
2023-02-21T01:22:56.015Z,27.30
2023-02-21T01:23:56.003Z,26.30
2023-02-21T01:24:56.001Z,25.40
2023-02-21T01:25:56.024Z,26.90
2023-02-21T01:26:55.981Z,26.50
2023-02-21T01:27:55.984Z,25.10
2023-02-21T01:28:55.969Z,25.70
2023-02-21T01:29:55.979Z,24.90
2023-02-21T01:30:55.994Z,25.20
2023-02-21T01:31:55.946Z,26.40
2023-02-21T01:32:55.939Z,25.30
2023-02-21T01:33:55.943Z,25.80
2023-02-21T01:34:55.929Z,25.60
2023-02-21T01:35:55.945Z,24.70
2023-02-21T01:36:55.913Z,25.60
2023-02-21T01:37:55.909Z,25.60
2023-02-21T01:38:55.895Z,25.30
2023-02-21T01:39:55.891Z,25.20
2023-02-21T01:40:55.907Z,25.20
2023-02-21T01:41:55.875Z,24.60
2023-02-21T01:42:55.861Z,25.10
2023-02-21T01:43:55.860Z,24.00
2023-02-21T01:44:55.847Z,25.40
2023-02-21T01:45:55.916Z,25.40
2023-02-21T01:46:55.832Z,26.00
2023-02-21T01:47:55.832Z,25.30
2023-02-21T01:48:55.815Z,26.00
2023-02-21T01:49:55.821Z,25.50
2023-02-21T01:50:55.841Z,26.00
2023-02-21T01:51:55.799Z,25.70
2023-02-21T01:52:55.790Z,25.90
2023-02-21T01:53:55.789Z,26.80
2023-02-21T01:54:55.775Z,26.20
2023-02-21T01:55:55.795Z,27.00
2023-02-21T01:56:55.755Z,26.40
2023-02-21T01:57:55.751Z,26.10
2023-02-21T01:58:55.739Z,25.50
2023-02-21T01:59:55.736Z,25.90
2023-02-21T02:00:55.747Z,26.50
2023-02-21T02:01:55.717Z,27.50
2023-02-21T02:02:55.716Z,27.30
2023-02-21T02:03:55.703Z,26.70
2023-02-21T02:04:55.698Z,26.60
2023-02-21T02:05:55.685Z,26.20
2023-02-21T02:06:55.705Z,25.40
2023-02-21T02:07:55.687Z,26.70
2023-02-21T02:08:55.659Z,26.90
2023-02-21T02:09:55.651Z,26.10
2023-02-21T02:10:55.644Z,25.50
2023-02-21T02:11:55.664Z,25.70
2023-02-21T02:12:55.633Z,26.00
2023-02-21T02:13:55.632Z,25.70
2023-02-21T02:14:55.623Z,25.50
2023-02-21T02:15:55.672Z,25.00
2023-02-21T02:16:55.622Z,25.90
2023-02-21T02:17:55.586Z,26.10
2023-02-21T02:18:55.588Z,26.70
2023-02-21T02:19:55.574Z,27.00
2023-02-21T02:20:55.565Z,27.40
2023-02-21T02:21:55.599Z,28.10
2023-02-21T02:22:55.560Z,27.50
2023-02-21T02:23:55.552Z,27.50
2023-02-21T02:24:55.570Z,27.00
2023-02-21T02:25:55.537Z,26.50
2023-02-21T02:26:55.548Z,27.10
2023-02-21T02:27:55.516Z,27.20
2023-02-21T02:28:55.519Z,27.30
2023-02-21T02:29:55.501Z,26.80
2023-02-21T02:30:55.510Z,26.80
2023-02-21T02:31:55.593Z,26.80
2023-02-21T02:32:55.481Z,26.80
2023-02-21T02:33:55.473Z,26.20
2023-02-21T02:34:55.469Z,26.40
2023-02-21T02:35:55.459Z,26.30
2023-02-21T02:36:55.480Z,26.40
2023-02-21T02:37:55.445Z,26.50
2023-02-21T02:38:55.439Z,26.80
2023-02-21T02:39:55.438Z,26.50
2023-02-21T02:40:55.420Z,26.80
2023-02-21T02:41:55.432Z,26.30
2023-02-21T02:42:55.408Z,27.20
2023-02-21T02:43:55.400Z,27.00
2023-02-21T02:44:55.386Z,26.60
2023-02-21T02:45:55.379Z,28.00
2023-02-21T02:46:55.398Z,28.20
2023-02-21T02:47:55.367Z,28.20
2023-02-21T02:48:55.358Z,27.60
2023-02-21T02:49:55.361Z,27.80
2023-02-21T02:50:55.344Z,27.70
2023-02-21T02:51:55.354Z,27.20
2023-02-21T02:52:55.326Z,27.80
2023-02-21T02:53:55.306Z,27.60
2023-02-21T02:54:55.326Z,27.80
2023-02-21T02:55:55.304Z,28.50
2023-02-21T02:56:55.317Z,27.40
2023-02-21T02:57:55.274Z,28.10
2023-02-21T02:58:56.267Z,27.60
2023-02-21T02:59:55.295Z,27.90
2023-02-21T03:00:55.258Z,28.30
2023-02-21T03:01:55.329Z,27.30
2023-02-21T03:02:55.244Z,27.80
2023-02-21T03:03:55.300Z,28.80
2023-02-21T03:04:55.224Z,27.20
2023-02-21T03:05:55.229Z,28.90
2023-02-21T03:06:55.228Z,27.70
2023-02-21T03:07:55.198Z,26.50
2023-02-21T03:08:55.191Z,23.70
2023-02-21T03:09:55.182Z,23.60
2023-02-21T03:10:55.173Z,24.10
2023-02-21T03:11:55.189Z,23.40
2023-02-21T03:12:55.162Z,23.80
2023-02-21T03:13:55.153Z,24.10
2023-02-21T03:14:55.147Z,23.20
2023-02-21T03:15:55.153Z,24.20
2023-02-21T03:16:55.166Z,21.80
2023-02-21T03:17:55.112Z,24.10
2023-02-21T03:18:55.115Z,23.70
2023-02-21T03:19:55.105Z,23.70
2023-02-21T03:20:55.105Z,23.90
2023-02-21T03:21:55.118Z,24.70
2023-02-21T03:22:55.172Z,24.80
2023-02-21T03:23:55.075Z,23.90
2023-02-21T03:24:55.069Z,25.30
2023-02-21T03:25:55.061Z,24.00
2023-02-21T03:26:55.052Z,24.60
2023-02-21T03:27:55.081Z,25.50
2023-02-21T03:28:55.036Z,26.00
2023-02-21T03:29:55.029Z,25.60
2023-02-21T03:30:55.109Z,26.80
2023-02-21T03:31:55.140Z,26.90
2023-02-21T03:32:55.013Z,25.70
2023-02-21T03:33:55.001Z,25.40
2023-02-21T03:34:55.000Z,26.40
2023-02-21T03:35:54.990Z,25.60
2023-02-21T03:36:54.987Z,25.30
2023-02-21T03:37:54.990Z,25.70
2023-02-21T03:38:54.958Z,26.00
2023-02-21T03:39:54.956Z,26.50
2023-02-21T03:40:54.948Z,25.80
2023-02-21T03:41:54.938Z,25.40
2023-02-21T03:42:54.962Z,26.00
2023-02-21T03:43:54.925Z,26.10
2023-02-21T03:44:54.929Z,26.90
2023-02-21T03:45:54.910Z,27.00
2023-02-21T03:46:54.949Z,26.60
2023-02-21T03:47:54.919Z,26.10
2023-02-21T03:48:54.883Z,26.50
2023-02-21T03:49:54.923Z,27.00
2023-02-21T03:50:54.865Z,26.40
2023-02-21T03:51:54.857Z,26.00
2023-02-21T03:52:54.875Z,25.40
2023-02-21T03:53:54.837Z,26.90
2023-02-21T03:54:54.843Z,26.50
2023-02-21T03:55:54.831Z,26.70
2023-02-21T03:56:54.820Z,26.90
2023-02-21T03:57:54.847Z,26.70
2023-02-21T03:58:54.799Z,27.00
2023-02-21T03:59:55.802Z,27.20
2023-02-21T04:00:54.875Z,26.80
2023-02-21T04:01:54.873Z,27.00
2023-02-21T04:02:54.808Z,26.50
2023-02-21T04:03:54.777Z,26.40
2023-02-21T04:04:54.768Z,26.40
2023-02-21T04:05:54.778Z,26.80
2023-02-21T04:06:54.750Z,25.80
2023-02-21T04:07:54.774Z,26.30
2023-02-21T04:08:54.774Z,26.40
2023-02-21T04:09:54.733Z,26.40
2023-02-21T04:10:54.721Z,26.30
2023-02-21T04:11:54.713Z,26.50
2023-02-21T04:12:54.740Z,26.90
2023-02-21T04:13:54.701Z,27.40
2023-02-21T04:14:54.694Z,27.10
2023-02-21T04:15:54.684Z,27.90
2023-02-21T04:16:54.677Z,27.50
2023-02-21T04:17:54.708Z,27.40
2023-02-21T04:18:54.663Z,29.10
2023-02-21T04:19:54.656Z,30.70
2023-02-21T04:20:54.648Z,30.00
2023-02-21T04:21:54.649Z,30.40
2023-02-21T04:23:03.184Z,31.20
2023-02-21T04:23:56.635Z,30.60
2023-02-21T04:24:54.617Z,31.60
2023-02-21T04:25:54.614Z,30.20
2023-02-21T04:26:54.602Z,30.40
2023-02-21T04:27:54.626Z,30.40
2023-02-21T04:28:54.582Z,29.50
2023-02-21T04:29:54.573Z,30.30
2023-02-21T04:30:54.572Z,30.80
2023-02-21T04:31:54.656Z,30.60
2023-02-21T04:32:54.580Z,30.70
2023-02-21T04:34:05.758Z,30.10
2023-02-21T04:34:56.544Z,29.80
2023-02-21T04:35:54.535Z,30.80
2023-02-21T04:36:54.531Z,29.80
2023-02-21T04:37:54.538Z,30.10
2023-02-21T04:38:54.509Z,29.90
2023-02-21T04:39:54.507Z,29.20
2023-02-21T04:40:54.502Z,29.20
2023-02-21T04:41:54.487Z,28.80
2023-02-21T04:42:54.511Z,28.40
2023-02-21T04:43:54.473Z,29.20
2023-02-21T04:45:00.079Z,29.10
2023-02-21T04:45:56.509Z,29.20
2023-02-21T04:46:54.456Z,29.20
2023-02-21T04:47:54.464Z,29.20
2023-02-21T04:48:54.453Z,29.20
2023-02-21T04:49:54.436Z,29.10
2023-02-21T04:50:57.303Z,29.10
2023-02-21T04:51:55.418Z,29.40
2023-02-21T04:52:54.433Z,28.80
2023-02-21T04:53:54.418Z,29.10
2023-02-21T04:54:54.401Z,28.90
2023-02-21T04:55:54.382Z,29.00
2023-02-21T04:56:54.430Z,28.20
2023-02-21T04:57:54.401Z,29.10
2023-02-21T04:58:54.359Z,27.90
2023-02-21T04:59:54.352Z,28.00
2023-02-21T05:00:54.433Z,27.70
2023-02-21T05:01:54.341Z,29.20
2023-02-21T05:02:54.356Z,28.80
2023-02-21T05:03:54.337Z,28.50
2023-02-21T05:04:54.394Z,28.60
2023-02-21T05:05:54.307Z,28.00
2023-02-21T05:06:54.298Z,28.80
2023-02-21T05:07:54.330Z,28.40
2023-02-21T05:08:54.300Z,29.30
2023-02-21T05:09:54.277Z,28.90
2023-02-21T05:10:54.279Z,29.10
2023-02-21T05:11:54.275Z,28.70
2023-02-21T05:12:54.291Z,28.40
2023-02-21T05:13:54.256Z,28.70
2023-02-21T05:14:54.248Z,28.40
2023-02-21T05:15:54.232Z,29.00
2023-02-21T05:16:54.330Z,29.50
2023-02-21T05:17:54.243Z,28.10
2023-02-21T05:18:54.220Z,28.50
2023-02-21T05:19:54.210Z,27.80
2023-02-21T05:20:54.200Z,28.40
2023-02-21T05:21:54.201Z,28.60
2023-02-21T05:22:55.958Z,28.60
2023-02-21T05:23:54.178Z,29.80
2023-02-21T05:24:54.173Z,29.00
2023-02-21T05:25:54.160Z,29.60
2023-02-21T05:26:54.145Z,28.40
2023-02-21T05:27:54.171Z,28.60
2023-02-21T05:28:54.138Z,28.10
2023-02-21T05:29:54.126Z,29.30
2023-02-21T05:30:54.216Z,29.50
2023-02-21T05:31:54.135Z,28.80
2023-02-21T05:32:54.132Z,27.80
2023-02-21T05:33:54.095Z,28.30
2023-02-21T05:34:54.147Z,28.00
2023-02-21T05:35:54.091Z,28.10
2023-02-21T05:36:54.078Z,28.10
2023-02-21T05:37:54.095Z,28.70
2023-02-21T05:38:54.093Z,27.90
2023-02-21T05:39:54.049Z,27.90
2023-02-21T05:40:54.049Z,27.90
2023-02-21T05:41:54.042Z,27.20
2023-02-21T05:42:54.057Z,27.60
2023-02-21T05:43:54.034Z,27.70
2023-02-21T05:44:54.019Z,27.60
2023-02-21T05:45:54.066Z,27.80
2023-02-21T05:46:54.004Z,27.40
2023-02-21T05:47:54.021Z,28.60
2023-02-21T05:48:53.992Z,28.00
2023-02-21T05:49:53.982Z,27.30
2023-02-21T05:50:53.967Z,28.20
2023-02-21T05:51:53.960Z,27.40
2023-02-21T05:52:53.979Z,28.30
2023-02-21T05:53:53.985Z,28.20
2023-02-21T05:54:53.936Z,28.70
2023-02-21T05:55:53.933Z,28.40
2023-02-21T05:56:53.908Z,28.00
2023-02-21T05:57:54.937Z,27.80
2023-02-21T05:58:53.901Z,28.70
2023-02-21T05:59:53.900Z,28.80
2023-02-21T06:00:53.893Z,29.70
2023-02-21T06:01:53.878Z,29.00
2023-02-21T06:02:53.900Z,28.70
2023-02-21T06:03:53.908Z,29.40
2023-02-21T06:04:53.863Z,28.50
2023-02-21T06:05:53.840Z,28.20
2023-02-21T06:06:53.836Z,28.00
2023-02-21T06:07:53.853Z,30.60
2023-02-21T06:08:53.825Z,30.10
2023-02-21T06:09:53.816Z,29.90
2023-02-21T06:10:53.806Z,30.30
2023-02-21T06:11:53.801Z,30.70
2023-02-21T06:12:53.831Z,31.10
2023-02-21T06:13:53.784Z,30.30
2023-02-21T06:14:53.778Z,29.80
2023-02-21T06:15:53.770Z,30.40
2023-02-21T06:16:53.759Z,29.30
2023-02-21T06:17:53.782Z,31.10
2023-02-21T06:18:53.747Z,32.80
2023-02-21T06:19:53.734Z,32.60
2023-02-21T06:20:53.733Z,31.10
2023-02-21T06:21:53.725Z,33.10
2023-02-21T06:22:53.744Z,32.40
2023-02-21T06:23:53.731Z,31.20
2023-02-21T06:24:56.159Z,32.20
2023-02-21T06:25:53.696Z,30.80
2023-02-21T06:26:53.706Z,31.30
2023-02-21T06:27:53.709Z,30.70
2023-02-21T06:28:53.681Z,30.80
2023-02-21T06:29:53.692Z,29.60
2023-02-21T06:30:53.760Z,30.10
2023-02-21T06:31:53.653Z,30.40
2023-02-21T06:32:54.683Z,31.60
2023-02-21T06:33:53.649Z,31.10
2023-02-21T06:34:53.640Z,30.50
2023-02-21T06:35:53.652Z,30.70
2023-02-21T06:36:53.634Z,31.60
2023-02-21T06:37:53.614Z,30.10
2023-02-21T06:38:53.641Z,30.90
2023-02-21T06:39:53.599Z,31.30
2023-02-21T06:40:53.594Z,30.70
2023-02-21T06:41:53.603Z,30.50
2023-02-21T06:42:53.578Z,32.10
2023-02-21T06:43:53.599Z,32.10
2023-02-21T06:44:53.577Z,32.30
2023-02-21T06:45:53.637Z,32.30
2023-02-21T06:46:53.543Z,31.40
2023-02-21T06:47:53.538Z,30.30
2023-02-21T06:48:53.568Z,31.40
2023-02-21T06:49:53.529Z,31.40
2023-02-21T06:50:53.520Z,31.40
2023-02-21T06:51:53.513Z,32.00
2023-02-21T06:52:53.502Z,30.60
2023-02-21T06:53:53.529Z,31.60
2023-02-21T06:54:53.496Z,31.80
2023-02-21T06:55:53.481Z,31.40
2023-02-21T06:56:53.476Z,32.10
2023-02-21T06:57:53.462Z,32.00
2023-02-21T06:58:53.481Z,31.00
2023-02-21T06:59:53.448Z,32.10
2023-02-21T07:00:53.448Z,31.90
2023-02-21T07:01:53.464Z,31.30
2023-02-21T07:02:53.428Z,31.40
2023-02-21T07:03:53.455Z,31.40
2023-02-21T07:04:53.450Z,31.40
2023-02-21T07:05:53.413Z,31.50
2023-02-21T07:06:53.407Z,32.40
2023-02-21T07:07:53.385Z,32.90
2023-02-21T07:08:53.418Z,32.50
2023-02-21T07:09:53.398Z,32.90
2023-02-21T07:10:53.356Z,34.00
2023-02-21T07:11:53.352Z,34.50
2023-02-21T07:12:53.348Z,32.60
2023-02-21T07:13:53.382Z,32.10
2023-02-21T07:14:53.345Z,32.90
2023-02-21T07:15:53.341Z,32.20
2023-02-21T07:16:53.350Z,31.70
2023-02-21T07:17:53.310Z,32.30
2023-02-21T07:18:53.332Z,32.20
2023-02-21T07:19:53.297Z,31.10
2023-02-21T07:20:53.284Z,31.30
2023-02-21T07:21:53.272Z,31.10
2023-02-21T07:22:53.272Z,31.30
2023-02-21T07:23:53.293Z,30.60
2023-02-21T07:24:53.267Z,31.70
2023-02-21T07:25:53.244Z,31.70
2023-02-21T07:26:53.238Z,31.70
2023-02-21T07:27:53.230Z,30.90
2023-02-21T07:28:53.331Z,31.20
2023-02-21T07:29:53.217Z,30.30
2023-02-21T07:30:53.249Z,30.90
2023-02-21T07:31:53.292Z,31.40
2023-02-21T07:33:39.279Z,31.00
2023-02-21T07:34:39.273Z,31.70
2023-02-21T07:35:39.272Z,31.30
2023-02-21T07:36:40.332Z,31.50
2023-02-21T07:37:39.261Z,32.00
2023-02-21T07:38:39.273Z,31.60
2023-02-21T07:39:39.237Z,32.30
2023-02-21T07:40:39.221Z,31.80
2023-02-21T07:41:39.215Z,31.60
2023-02-21T07:42:39.218Z,32.60
2023-02-21T07:43:39.332Z,31.60
2023-02-21T07:44:39.187Z,32.60
2023-02-21T07:45:39.186Z,32.20
2023-02-21T07:46:40.373Z,32.40
2023-02-21T07:47:41.316Z,31.50
2023-02-21T07:48:40.326Z,31.50
2023-02-21T07:49:41.292Z,31.90
2023-02-21T07:50:40.288Z,31.90
2023-02-21T07:51:40.281Z,31.10
2023-02-21T07:52:40.271Z,31.30
2023-02-21T07:53:40.301Z,31.30
2023-02-21T07:54:40.259Z,32.60
2023-02-21T07:55:40.248Z,31.70
2023-02-21T07:56:40.236Z,31.30
2023-02-21T07:57:40.232Z,32.00
2023-02-21T07:58:40.264Z,32.10
2023-02-21T07:59:40.214Z,32.60
2023-02-21T08:00:40.678Z,31.30
2023-02-21T08:01:41.224Z,31.90
2023-02-21T08:02:40.222Z,32.10
2023-02-21T08:03:40.219Z,31.00
2023-02-21T08:04:40.238Z,33.40
2023-02-21T08:05:40.177Z,31.90
2023-02-21T08:06:40.167Z,32.30
2023-02-21T08:07:40.168Z,31.90
2023-02-21T08:08:40.179Z,32.20
2023-02-21T08:09:40.140Z,33.30
2023-02-21T08:10:40.128Z,31.90
2023-02-21T08:11:40.123Z,31.80
2023-02-21T08:12:40.123Z,31.40
2023-02-21T08:13:40.141Z,31.40
2023-02-21T08:14:40.126Z,30.50
2023-02-21T08:15:40.106Z,30.70
2023-02-21T08:16:40.160Z,30.30
2023-02-21T08:17:40.078Z,30.90
2023-02-21T08:18:40.107Z,30.60
2023-02-21T08:19:40.068Z,30.00
2023-02-21T08:20:40.061Z,30.10
2023-02-21T08:21:40.043Z,29.40
2023-02-21T08:22:40.035Z,29.50
2023-02-21T08:23:40.060Z,29.60
2023-02-21T08:24:40.020Z,29.00
2023-02-21T08:25:40.040Z,29.20
2023-02-21T08:26:40.053Z,29.30
2023-02-21T08:27:40.010Z,30.70
2023-02-21T08:28:40.030Z,30.60
2023-02-21T08:29:39.993Z,29.10
2023-02-21T08:30:39.999Z,29.30
2023-02-21T08:31:40.030Z,28.20
2023-02-21T08:32:39.961Z,29.30
2023-02-21T08:33:39.995Z,28.80
2023-02-21T08:34:39.953Z,29.20
2023-02-21T08:35:39.990Z,28.70
2023-02-21T08:36:39.933Z,29.50
2023-02-21T08:37:39.926Z,29.80
2023-02-21T08:38:39.942Z,29.50
2023-02-21T08:39:39.918Z,28.10
2023-02-21T08:40:39.905Z,28.80
2023-02-21T08:41:39.908Z,27.60
2023-02-21T08:42:39.881Z,28.10
2023-02-21T08:43:39.899Z,28.20
2023-02-21T08:44:39.875Z,28.10
2023-02-21T08:45:39.867Z,27.50
2023-02-21T08:46:39.925Z,27.60
2023-02-21T08:47:39.856Z,27.60
2023-02-21T08:48:39.862Z,27.20
2023-02-21T08:49:39.830Z,27.20
2023-02-21T08:50:39.821Z,26.80
2023-02-21T08:51:39.830Z,27.00
2023-02-21T08:52:39.815Z,26.60
2023-02-21T08:53:39.822Z,26.50
2023-02-21T08:54:39.816Z,26.00
2023-02-21T08:55:39.784Z,26.80
2023-02-21T08:56:39.862Z,26.40
2023-02-21T08:57:39.803Z,26.90
2023-02-21T08:58:39.798Z,26.30
2023-02-21T08:59:39.827Z,26.00
2023-02-21T09:00:40.811Z,26.50
2023-02-21T09:01:39.762Z,26.40
2023-02-21T09:02:39.736Z,26.40
2023-02-21T09:03:39.725Z,26.40
2023-02-21T09:04:39.761Z,26.00
2023-02-21T09:05:39.746Z,26.30
2023-02-21T09:06:39.709Z,26.20
2023-02-21T09:07:39.715Z,27.30
2023-02-21T09:08:39.715Z,26.80
2023-02-21T09:09:39.715Z,26.20
2023-02-21T09:10:39.763Z,25.60
2023-02-21T09:11:39.667Z,25.90
2023-02-21T09:12:39.669Z,25.80
2023-02-21T09:13:39.659Z,25.60
2023-02-21T09:14:39.675Z,25.30
2023-02-21T09:15:39.636Z,24.80
2023-02-21T09:16:39.671Z,25.50
2023-02-21T09:17:39.620Z,25.00
2023-02-21T09:18:39.618Z,25.10
2023-02-21T09:19:39.633Z,25.30
2023-02-21T09:20:39.596Z,24.90
2023-02-21T09:21:39.582Z,25.10
2023-02-21T09:22:40.586Z,24.90
2023-02-21T09:23:39.579Z,24.40
2023-02-21T09:24:39.593Z,24.40
2023-02-21T09:25:39.569Z,24.10
2023-02-21T09:26:39.549Z,23.80
2023-02-21T09:27:39.542Z,24.50
2023-02-21T09:28:39.543Z,24.00
2023-02-21T09:29:46.239Z,23.50
2023-02-21T09:30:41.555Z,24.00
2023-02-21T09:31:39.586Z,23.40
2023-02-21T09:32:39.553Z,23.60
2023-02-21T09:33:39.505Z,23.10
2023-02-21T09:34:39.526Z,23.80
2023-02-21T09:35:39.480Z,22.90
2023-02-21T09:36:39.476Z,22.90
2023-02-21T09:37:39.472Z,23.00
2023-02-21T09:38:39.465Z,22.40
2023-02-21T09:39:39.493Z,23.10
2023-02-21T09:40:39.457Z,22.40
2023-02-21T09:41:39.448Z,22.50
2023-02-21T09:42:39.437Z,22.70
2023-02-21T09:43:39.434Z,22.50
2023-02-21T09:44:39.452Z,21.70
2023-02-21T09:45:39.452Z,21.20
2023-02-21T09:46:39.422Z,21.50
2023-02-21T09:47:39.403Z,21.30
2023-02-21T09:48:39.403Z,21.60
2023-02-21T09:49:39.421Z,20.80
2023-02-21T09:50:39.373Z,22.50
2023-02-21T09:51:39.369Z,23.90
2023-02-21T09:52:39.354Z,21.50
2023-02-21T09:53:39.356Z,21.20
2023-02-21T09:54:39.376Z,20.50
2023-02-21T09:55:39.334Z,21.10
2023-02-21T09:56:39.370Z,20.70
2023-02-21T09:57:39.317Z,21.00
2023-02-21T09:58:39.351Z,20.60
2023-02-21T09:59:39.328Z,20.30
2023-02-21T10:00:39.291Z,20.80
2023-02-21T10:01:39.360Z,20.80
2023-02-21T10:02:39.279Z,21.00
2023-02-21T10:03:39.276Z,20.20
2023-02-21T10:04:39.338Z,21.20
2023-02-21T10:05:39.268Z,20.10
2023-02-21T10:06:39.260Z,21.00
2023-02-21T10:07:39.236Z,20.10
2023-02-21T10:08:39.268Z,20.60
2023-02-21T10:09:39.260Z,20.50
2023-02-21T10:10:39.224Z,20.10
2023-02-21T10:11:39.209Z,20.30
2023-02-21T10:12:39.196Z,20.00
2023-02-21T10:13:40.221Z,19.60
2023-02-21T10:14:39.217Z,19.60
2023-02-21T10:15:39.181Z,20.40
2023-02-21T10:16:39.178Z,19.90
2023-02-21T10:17:39.173Z,20.30
2023-02-21T10:18:39.161Z,14.70
2023-02-21T10:19:39.205Z,16.90
2023-02-21T10:20:39.151Z,17.20
2023-02-21T10:21:39.131Z,17.30
2023-02-21T10:22:39.132Z,17.10
2023-02-21T10:23:39.124Z,17.00
2023-02-21T10:24:39.144Z,16.90
2023-02-21T10:25:39.115Z,17.40
2023-02-21T10:26:39.103Z,17.40
2023-02-21T10:27:39.088Z,16.30
2023-02-21T10:28:39.098Z,16.80
2023-02-21T10:29:39.111Z,17.60
2023-02-21T10:30:39.161Z,18.20
2023-02-21T10:31:39.151Z,16.60
2023-02-21T10:32:39.049Z,16.70
2023-02-21T10:33:39.048Z,18.10
2023-02-21T10:34:39.023Z,19.00
2023-02-21T10:35:39.543Z,18.30
2023-02-21T10:36:40.026Z,18.40
2023-02-21T10:37:39.021Z,18.70
2023-02-21T10:38:38.996Z,18.40
2023-02-21T10:39:38.988Z,19.40
2023-02-21T10:40:40.008Z,18.70
2023-02-21T10:41:38.986Z,18.30
2023-02-21T10:42:38.970Z,19.00
2023-02-21T10:43:38.963Z,19.00
2023-02-21T10:44:38.959Z,19.00
2023-02-21T10:45:39.007Z,17.50
2023-02-21T10:46:38.937Z,18.40
2023-02-21T10:47:38.930Z,18.70
2023-02-21T10:48:38.918Z,18.40
2023-02-21T10:49:39.937Z,18.20
2023-02-21T10:50:38.927Z,17.80
2023-02-21T10:51:39.922Z,18.70
2023-02-21T10:52:38.892Z,18.70
2023-02-21T10:53:38.889Z,18.80
2023-02-21T10:54:38.885Z,19.00
2023-02-21T10:55:38.905Z,19.20
2023-02-21T10:56:38.861Z,18.90
2023-02-21T10:57:38.860Z,18.20
2023-02-21T10:58:38.862Z,18.00
2023-02-21T10:59:38.840Z,17.80
2023-02-21T11:00:38.865Z,18.40
2023-02-21T11:01:38.850Z,19.10
2023-02-21T11:02:38.915Z,19.70
2023-02-21T11:03:38.807Z,20.60
2023-02-21T11:04:38.799Z,21.40
2023-02-21T11:05:38.817Z,21.50
2023-02-21T11:06:38.793Z,21.10
2023-02-21T11:07:38.774Z,20.70
2023-02-21T11:08:38.769Z,21.20
2023-02-21T11:09:39.570Z,20.60
2023-02-21T11:10:38.793Z,21.50
2023-02-21T11:11:38.765Z,21.40
2023-02-21T11:12:38.776Z,21.00
2023-02-21T11:13:38.728Z,21.60
2023-02-21T11:14:38.726Z,21.30
2023-02-21T11:15:38.790Z,21.00
2023-02-21T11:16:38.712Z,19.90
2023-02-21T11:17:38.702Z,20.20
2023-02-21T11:18:38.763Z,20.10
2023-02-21T11:19:38.695Z,21.20
2023-02-21T11:20:38.721Z,20.10
2023-02-21T11:21:38.673Z,19.60
2023-02-21T11:22:38.668Z,19.90
2023-02-21T11:23:38.655Z,20.00
2023-02-21T11:24:38.656Z,19.30
2023-02-21T11:25:38.668Z,20.20
2023-02-21T11:26:38.638Z,19.60
2023-02-21T11:27:38.625Z,19.90
2023-02-21T11:28:38.615Z,19.20
2023-02-21T11:29:38.613Z,20.10
2023-02-21T11:30:38.673Z,20.00
2023-02-21T11:31:38.740Z,19.10
2023-02-21T11:32:38.590Z,19.90
2023-02-21T11:33:38.587Z,19.90
2023-02-21T11:34:38.574Z,19.80
2023-02-21T11:35:38.676Z,19.40
2023-02-21T11:36:38.549Z,19.20
2023-02-21T11:37:38.549Z,18.00
2023-02-21T11:38:38.579Z,17.80
2023-02-21T11:39:38.541Z,17.80
2023-02-21T11:40:38.538Z,17.30
2023-02-21T11:41:38.578Z,17.10
2023-02-21T11:42:38.523Z,17.80
2023-02-21T11:43:38.510Z,17.90
2023-02-21T11:44:38.505Z,16.70
2023-02-21T11:45:38.488Z,16.50
2023-02-21T11:46:38.540Z,16.40
2023-02-21T11:47:38.494Z,15.60
2023-02-21T11:48:38.469Z,15.60
2023-02-21T11:49:38.463Z,15.40
2023-02-21T11:50:38.453Z,15.10
2023-02-21T11:51:38.535Z,13.80
2023-02-21T11:52:38.452Z,14.10
2023-02-21T11:53:38.432Z,14.30
2023-02-21T11:54:38.443Z,13.90
2023-02-21T11:55:38.413Z,14.80
2023-02-21T11:56:38.447Z,14.30
2023-02-21T11:57:38.404Z,14.20
2023-02-21T11:58:38.390Z,13.60
2023-02-21T11:59:38.387Z,13.70
2023-02-21T12:00:39.971Z,13.40
2023-02-21T12:01:39.408Z,13.10
2023-02-21T12:02:38.391Z,13.20
2023-02-21T12:03:38.368Z,13.30
2023-02-21T12:04:38.347Z,13.60
2023-02-21T12:05:38.371Z,11.80
2023-02-21T12:06:38.354Z,11.40
2023-02-21T12:07:38.324Z,11.60
2023-02-21T12:08:38.328Z,11.80
2023-02-21T12:09:38.315Z,11.80
2023-02-21T12:10:38.345Z,11.90
2023-02-21T12:11:38.326Z,11.60
2023-02-21T12:12:38.283Z,11.40
2023-02-21T12:13:38.352Z,11.60
2023-02-21T12:14:38.293Z,11.80
2023-02-21T12:15:38.303Z,11.50
2023-02-21T12:16:38.279Z,12.00
2023-02-21T12:17:38.243Z,11.50
2023-02-21T12:18:38.256Z,11.70
2023-02-21T12:19:38.232Z,11.80
2023-02-21T12:20:38.222Z,11.50
2023-02-21T12:21:38.235Z,12.60
2023-02-21T12:22:38.206Z,12.10
2023-02-21T12:23:38.204Z,13.80
2023-02-21T12:24:38.189Z,12.00
2023-02-21T12:25:38.202Z,12.90
2023-02-21T12:26:38.197Z,15.20
2023-02-21T12:27:38.169Z,14.60
2023-02-21T12:28:38.156Z,11.70
2023-02-21T12:29:38.151Z,11.10
2023-02-21T12:30:38.204Z,10.80
2023-02-21T12:31:38.343Z,12.40
2023-02-21T12:32:38.131Z,11.80
2023-02-21T12:33:38.127Z,10.60
2023-02-21T12:34:38.119Z,10.90
2023-02-21T12:35:38.159Z,11.30
2023-02-21T12:36:38.127Z,11.10
2023-02-21T12:37:38.115Z,10.50
2023-02-21T12:38:39.541Z,10.60
2023-02-21T12:39:39.080Z,11.20
2023-02-21T12:40:38.075Z,12.10
2023-02-21T12:41:38.099Z,14.00
2023-02-21T12:42:38.063Z,13.60
2023-02-21T12:43:38.062Z,14.40
2023-02-21T12:44:38.049Z,15.40
2023-02-21T12:45:38.052Z,14.90
2023-02-21T12:46:38.135Z,14.90
2023-02-21T12:47:38.020Z,14.50
2023-02-21T12:48:38.013Z,14.20
2023-02-21T12:49:38.008Z,14.70
2023-02-21T12:50:38.006Z,14.50
2023-02-21T12:51:38.008Z,14.10
2023-02-21T12:52:37.981Z,14.00
2023-02-21T12:53:38.006Z,13.60